Time;durP1;ratioP1;P1;durP2;ratioP2;P2;SDS_P1;SDS_P2;PMS_P1;PMS_P2;Temp;Humidity;BMP_temperature;BMP_pressure;BME280_temperature;BME280_humidity;BME280_pressure;Samples;Min_cycle;Max_cycle;Signal;HPM_P1;HPM_P2
2022/12/31 00:01:10;;;;;;;7.88;2.65;;;11.50;99.90;;;;;;5063194;28;20044;-38
2022/12/31 00:03:37;;;;;;;7.10;2.88;;;11.50;99.90;;;;;;5064114;28;20040;-38
2022/12/31 00:06:18;;;;;;;6.05;2.38;;;11.50;99.90;;;;;;5061246;28;20222;-38
2022/12/31 00:08:45;;;;;;;6.18;2.22;;;11.50;99.90;;;;;;5061349;28;20044;-39
2022/12/31 00:11:11;;;;;;;8.23;2.38;;;11.50;99.90;;;;;;5064168;28;20071;-39
2022/12/31 00:13:37;;;;;;;6.88;2.78;;;11.50;99.90;;;;;;5079091;28;20048;-37
2022/12/31 00:16:09;;;;;;;6.70;2.38;;;11.50;99.90;;;;;;5061461;28;20081;-37
2022/12/31 00:18:34;;;;;;;7.50;2.33;;;11.50;99.90;;;;;;5065178;28;20491;-41
2022/12/31 00:21:04;;;;;;;3.60;1.73;;;11.50;99.90;;;;;;5056635;28;20086;-38
2022/12/31 00:23:30;;;;;;;5.75;2.10;;;11.50;99.90;;;;;;5061259;28;20443;-38
2022/12/31 00:25:55;;;;;;;5.63;2.20;;;11.50;99.90;;;;;;5061085;28;20167;-39
2022/12/31 00:28:21;;;;;;;6.47;2.33;;;11.50;99.90;;;;;;5063617;28;20033;-38
2022/12/31 00:30:46;;;;;;;5.30;2.13;;;11.50;99.90;;;;;;5057720;28;20450;-38
2022/12/31 00:33:12;;;;;;;7.43;2.08;;;11.50;99.90;;;;;;5060652;28;20105;-39
2022/12/31 00:35:38;;;;;;;4.50;2.00;;;11.50;99.90;;;;;;5059754;28;20032;-38
2022/12/31 00:38:03;;;;;;;4.68;2.08;;;11.50;99.90;;;;;;5062681;28;20466;-38
2022/12/31 00:40:29;;;;;;;4.45;2.20;;;11.50;99.90;;;;;;5060509;28;20366;-38
2022/12/31 00:42:55;;;;;;;9.30;2.10;;;11.50;99.90;;;;;;5064890;28;20500;-38
2022/12/31 00:45:20;;;;;;;5.38;2.22;;;11.50;99.90;;;;;;5069943;28;20036;-38
2022/12/31 00:47:46;;;;;;;4.72;2.05;;;11.50;99.90;;;;;;5070056;28;20037;-38
2022/12/31 00:50:12;;;;;;;3.95;1.70;;;11.50;99.90;;;;;;5068855;28;20052;-38
2022/12/31 00:52:37;;;;;;;5.07;1.45;;;11.50;99.90;;;;;;5066135;28;20048;-38
2022/12/31 00:55:03;;;;;;;7.40;1.83;;;11.50;99.90;;;;;;5069285;28;20493;-38
2022/12/31 00:57:29;;;;;;;8.07;2.00;;;11.50;99.90;;;;;;5067662;28;20490;-38
2022/12/31 00:59:55;;;;;;;3.72;1.65;;;11.50;99.90;;;;;;5064072;28;20102;-38
2022/12/31 01:02:21;;;;;;;3.53;1.67;;;11.50;99.90;;;;;;5067711;28;20064;-40
2022/12/31 01:04:46;;;;;;;5.80;1.50;;;11.50;99.90;;;;;;5074366;28;20072;-39
2022/12/31 01:07:12;;;;;;;6.85;1.77;;;11.40;99.90;;;;;;5060855;28;20044;-39
2022/12/31 01:09:38;;;;;;;4.78;1.65;;;11.40;99.90;;;;;;5071346;28;20043;-38
2022/12/31 01:12:04;;;;;;;3.33;1.40;;;11.40;99.90;;;;;;5064617;28;20048;-39
2022/12/31 01:14:31;;;;;;;3.90;1.20;;;11.40;99.90;;;;;;5068710;28;20102;-38
2022/12/31 01:16:57;;;;;;;3.08;1.13;;;11.40;99.90;;;;;;5068325;28;20042;-38
2022/12/31 01:19:26;;;;;;;2.35;1.17;;;11.40;99.90;;;;;;5047690;28;20402;-39
2022/12/31 01:21:52;;;;;;;4.68;1.50;;;11.40;99.90;;;;;;5064423;28;20068;-38
2022/12/31 01:24:19;;;;;;;5.10;2.08;;;11.40;99.90;;;;;;5070582;28;20050;-39
2022/12/31 01:26:45;;;;;;;5.35;1.13;;;11.40;99.90;;;;;;5064223;28;20506;-38
2022/12/31 01:29:12;;;;;;;5.10;1.35;;;11.40;99.90;;;;;;5067689;28;20490;-39
2022/12/31 01:31:38;;;;;;;1.73;0.93;;;11.40;99.90;;;;;;5069965;28;20046;-38
2022/12/31 01:34:05;;;;;;;3.05;0.90;;;11.40;99.90;;;;;;5063903;28;20052;-38
2022/12/31 01:36:32;;;;;;;3.80;1.00;;;11.40;99.90;;;;;;5065401;28;20620;-41
2022/12/31 01:39:00;;;;;;;3.22;0.95;;;11.40;99.90;;;;;;5063577;28;20112;-38
2022/12/31 01:41:32;;;;;;;3.75;1.10;;;11.40;99.90;;;;;;5067253;28;20029;-38
2022/12/31 01:44:18;;;;;;;;;;;11.40;99.90;;;;;;5064637;28;20036;-38
2022/12/31 01:46:48;;;;;;;3.47;0.70;;;11.30;99.90;;;;;;5053541;28;19916;-38
2022/12/31 01:49:40;;;;;;;2.70;0.52;;;11.30;99.90;;;;;;5063405;28;20094;-38
2022/12/31 01:52:10;;;;;;;1.67;0.60;;;11.30;99.90;;;;;;5060317;28;20132;-38
2022/12/31 01:54:48;;;;;;;2.33;0.40;;;11.30;99.90;;;;;;5067381;28;20085;-38
2022/12/31 01:57:15;;;;;;;0.65;0.30;;;11.30;99.90;;;;;;5063719;28;20119;-41
2022/12/31 01:59:43;;;;;;;2.03;0.40;;;11.20;99.90;;;;;;5067302;28;20037;-40
2022/12/31 02:02:10;;;;;;;1.65;0.43;;;11.20;99.90;;;;;;5066923;28;20098;-39
2022/12/31 02:04:35;;;;;;;0.50;0.20;;;11.20;99.90;;;;;;5064186;28;20044;-38
2022/12/31 02:07:05;;;;;;;1.67;0.38;;;11.20;99.90;;;;;;5068013;28;20115;-38
2022/12/31 02:09:33;;;;;;;1.27;0.50;;;11.20;99.90;;;;;;5065917;28;20164;-40
2022/12/31 02:11:59;;;;;;;1.60;0.22;;;11.10;99.90;;;;;;5041058;28;20044;-39
2022/12/31 02:14:40;;;;;;;0.57;0.17;;;11.10;99.90;;;;;;5066492;28;20047;-38
2022/12/31 02:17:31;;;;;;;3.15;0.63;;;11.10;99.90;;;;;;5065458;28;20494;-39
2022/12/31 02:20:30;;;;;;;3.10;0.40;;;11.10;99.90;;;;;;5059707;28;20047;-38
2022/12/31 02:23:31;;;;;;;1.30;0.30;;;11.10;99.90;;;;;;5039876;28;20059;-38
2022/12/31 02:26:07;;;;;;;1.95;0.38;;;11.00;99.90;;;;;;5000254;28;20085;-38
2022/12/31 02:28:52;;;;;;;2.10;0.32;;;11.00;99.90;;;;;;5061060;28;20048;-38
2022/12/31 02:31:25;;;;;;;1.08;0.30;;;11.00;99.90;;;;;;5062992;28;20036;-38
2022/12/31 02:34:29;;;;;;;0.43;0.20;;;11.00;99.90;;;;;;5065284;28;20039;-38
2022/12/31 02:36:58;;;;;;;1.65;0.30;;;11.00;99.90;;;;;;5068283;28;20072;-38
2022/12/31 02:39:24;;;;;;;4.05;0.30;;;11.00;99.90;;;;;;5065643;28;20044;-39
2022/12/31 02:41:50;;;;;;;2.90;0.40;;;11.00;99.90;;;;;;5062673;28;20036;-37
2022/12/31 02:44:30;;;;;;;1.90;0.40;;;11.00;99.90;;;;;;5056654;28;20404;-41
2022/12/31 02:47:06;;;;;;;2.42;0.40;;;11.00;99.90;;;;;;5056917;28;20094;-38
2022/12/31 02:49:50;;;;;;;3.88;0.70;;;11.00;99.90;;;;;;5053777;28;20067;-40
2022/12/31 02:52:19;;;;;;;3.28;0.40;;;10.90;99.90;;;;;;5068186;28;20501;-38
2022/12/31 02:55:15;;;;;;;2.65;0.50;;;10.90;99.90;;;;;;5060970;28;21840;-38
2022/12/31 02:58:07;;;;;;;2.67;0.70;;;10.90;99.90;;;;;;5067295;28;20040;-39
2022/12/31 03:03:25;;;;;;;2.22;0.80;;;10.90;99.90;;;;;;5066029;28;20052;-36
2022/12/31 03:05:51;;;;;;;2.17;0.85;;;10.90;99.90;;;;;;5067389;28;20124;-38
2022/12/31 03:08:22;;;;;;;3.20;0.90;;;10.80;99.90;;;;;;5048664;28;20134;-39
2022/12/31 03:10:47;;;;;;;5.57;1.27;;;10.80;99.90;;;;;;5064749;28;20041;-41
2022/12/31 03:13:13;;;;;;;2.70;1.15;;;10.80;99.90;;;;;;5063659;28;20409;-38
2022/12/31 03:15:39;;;;;;;4.13;1.40;;;10.80;99.90;;;;;;5063963;28;20037;-39
2022/12/31 03:18:16;;;;;;;2.25;1.17;;;10.80;99.90;;;;;;5061461;28;20040;-38
2022/12/31 03:23:36;;;;;;;5.13;1.63;;;10.90;99.90;;;;;;5061902;28;20067;-39
2022/12/31 03:26:09;;;;;;;4.30;1.50;;;10.90;99.90;;;;;;5057867;28;20488;-39
2022/12/31 03:28:36;;;;;;;3.30;1.20;;;10.90;99.90;;;;;;5062757;28;20045;-39
2022/12/31 03:31:02;;;;;;;4.70;1.50;;;10.90;99.90;;;;;;5064735;28;20043;-39
2022/12/31 03:33:36;;;;;;;3.53;1.50;;;10.90;99.90;;;;;;5061197;28;20033;-38
2022/12/31 03:36:08;;;;;;;6.15;1.60;;;10.90;99.90;;;;;;5068193;28;20037;-39
2022/12/31 03:38:34;;;;;;;2.65;1.45;;;10.90;99.90;;;;;;5066531;28;20062;-38
2022/12/31 03:40:59;;;;;;;2.50;1.10;;;10.90;99.90;;;;;;5066198;28;20119;-38
2022/12/31 03:43:25;;;;;;;3.10;1.40;;;10.90;99.90;;;;;;5057749;28;20044;-40
2022/12/31 03:45:52;;;;;;;2.90;1.25;;;10.90;99.90;;;;;;5063804;28;20050;-39
2022/12/31 03:48:20;;;;;;;3.80;1.42;;;10.90;99.90;;;;;;5063962;28;20037;-38
2022/12/31 03:50:45;;;;;;;3.78;1.25;;;11.00;99.90;;;;;;5067214;28;20069;-38
2022/12/31 03:53:11;;;;;;;6.78;1.10;;;10.90;99.90;;;;;;5061298;28;20119;-38
2022/12/31 03:55:37;;;;;;;2.50;1.00;;;10.90;99.90;;;;;;5066646;28;20048;-41
2022/12/31 03:58:03;;;;;;;3.28;1.10;;;10.90;99.90;;;;;;5067017;28;20045;-38
2022/12/31 04:00:29;;;;;;;5.70;1.08;;;10.90;99.90;;;;;;5062191;28;20379;-36
2022/12/31 04:02:55;;;;;;;6.50;1.15;;;10.90;99.90;;;;;;5063674;28;20035;-36
2022/12/31 04:05:21;;;;;;;3.60;1.08;;;10.90;99.90;;;;;;5063791;28;20085;-40
2022/12/31 04:07:47;;;;;;;4.30;1.00;;;10.90;99.90;;;;;;5073217;28;20123;-39
2022/12/31 04:10:15;;;;;;;3.83;0.95;;;10.90;99.90;;;;;;5063667;28;20071;-38
2022/12/31 04:12:41;;;;;;;3.08;0.85;;;10.90;99.90;;;;;;5065354;28;20044;-38
2022/12/31 04:15:08;;;;;;;2.50;0.80;;;10.90;99.90;;;;;;5064225;28;20044;-40
2022/12/31 04:17:34;;;;;;;4.10;0.75;;;10.90;99.90;;;;;;5072058;28;20029;-39
2022/12/31 04:19:59;;;;;;;3.47;0.90;;;10.80;99.90;;;;;;5083260;28;20090;-39
2022/12/31 04:22:25;;;;;;;3.33;0.88;;;10.90;99.90;;;;;;5037703;28;20565;-38
2022/12/31 04:24:51;;;;;;;4.75;1.30;;;10.90;99.90;;;;;;5071961;28;20032;-37
2022/12/31 04:27:17;;;;;;;3.67;1.10;;;10.90;99.90;;;;;;5071295;28;20049;-38
2022/12/31 04:29:43;;;;;;;5.72;1.17;;;10.90;99.90;;;;;;5064701;28;20067;-39
2022/12/31 04:32:09;;;;;;;5.20;1.20;;;10.90;99.90;;;;;;5067597;28;20047;-40
2022/12/31 04:34:35;;;;;;;5.13;1.13;;;10.90;99.90;;;;;;5069115;28;20036;-37
2022/12/31 04:37:01;;;;;;;3.25;1.35;;;10.90;99.90;;;;;;5068389;28;20043;-36
2022/12/31 04:39:27;;;;;;;3.25;1.30;;;10.90;99.90;;;;;;5044331;28;20056;-36
2022/12/31 04:41:53;;;;;;;2.83;1.00;;;10.90;99.90;;;;;;5070228;28;20037;-36
2022/12/31 04:44:19;;;;;;;5.10;1.50;;;10.90;99.90;;;;;;5068539;28;20075;-38
2022/12/31 04:46:45;;;;;;;5.53;1.23;;;10.80;99.90;;;;;;5065475;28;20060;-37
2022/12/31 04:49:11;;;;;;;3.67;1.23;;;10.80;99.90;;;;;;5067661;28;20533;-36
2022/12/31 04:51:37;;;;;;;4.75;1.33;;;10.80;99.90;;;;;;5068067;28;20075;-37
2022/12/31 04:54:03;;;;;;;3.92;1.42;;;10.80;99.90;;;;;;5072272;28;20047;-36
2022/12/31 04:56:29;;;;;;;2.53;1.00;;;10.80;99.90;;;;;;5067551;28;20039;-36
2022/12/31 04:58:55;;;;;;;3.70;1.30;;;10.80;99.90;;;;;;5072196;28;20041;-36
2022/12/31 05:01:21;;;;;;;3.63;1.70;;;10.80;99.90;;;;;;5067352;28;20044;-38
2022/12/31 05:03:47;;;;;;;2.33;0.98;;;10.80;99.90;;;;;;5061596;28;20060;-39
2022/12/31 05:06:19;;;;;;;3.50;1.10;;;10.80;99.90;;;;;;5066259;28;20036;-40
2022/12/31 05:08:45;;;;;;;3.78;1.38;;;10.80;99.90;;;;;;5064316;28;20039;-38
2022/12/31 05:11:11;;;;;;;2.85;1.00;;;10.80;99.90;;;;;;5072388;28;20039;-37
2022/12/31 05:13:37;;;;;;;5.53;1.80;;;10.80;99.90;;;;;;5070858;28;20051;-36
2022/12/31 05:16:03;;;;;;;4.40;0.95;;;10.80;99.90;;;;;;5063970;28;20581;-36
2022/12/31 05:18:30;;;;;;;3.75;1.13;;;10.90;99.90;;;;;;5067011;28;20094;-36
2022/12/31 05:20:56;;;;;;;4.15;1.45;;;10.80;99.90;;;;;;5046878;28;20560;-35
2022/12/31 05:23:22;;;;;;;2.08;0.93;;;10.80;99.90;;;;;;5068590;28;20045;-36
2022/12/31 05:25:48;;;;;;;3.75;1.02;;;10.80;99.90;;;;;;5064995;28;20071;-35
2022/12/31 05:28:15;;;;;;;3.45;0.75;;;10.80;99.90;;;;;;5068376;28;20190;-36
2022/12/31 05:30:42;;;;;;;4.63;1.25;;;10.80;99.90;;;;;;5065556;28;20494;-35
2022/12/31 05:33:07;;;;;;;2.20;0.90;;;10.80;99.90;;;;;;5065904;28;20044;-36
2022/12/31 05:35:33;;;;;;;4.05;1.10;;;10.80;99.90;;;;;;5064070;28;20043;-37
2022/12/31 05:38:00;;;;;;;5.60;0.88;;;10.80;99.90;;;;;;5070586;28;20475;-37
2022/12/31 05:40:26;;;;;;;3.15;1.05;;;10.80;99.90;;;;;;5049993;28;20478;-36
2022/12/31 05:42:52;;;;;;;3.40;1.00;;;10.80;99.90;;;;;;5081899;28;20501;-36
2022/12/31 05:45:18;;;;;;;2.65;1.08;;;10.80;99.90;;;;;;5065932;28;20079;-37
2022/12/31 05:47:44;;;;;;;1.65;0.70;;;10.80;99.90;;;;;;5063170;28;20560;-36
2022/12/31 05:50:12;;;;;;;1.83;0.80;;;10.80;99.90;;;;;;5071126;28;20049;-36
2022/12/31 05:52:38;;;;;;;2.90;0.90;;;10.70;99.90;;;;;;5046570;28;20032;-37
2022/12/31 05:55:04;;;;;;;3.78;0.80;;;10.70;99.90;;;;;;5069155;28;20098;-37
2022/12/31 05:57:29;;;;;;;2.00;0.90;;;10.70;99.90;;;;;;5061047;28;20121;-37
2022/12/31 05:59:55;;;;;;;2.75;0.75;;;10.70;99.90;;;;;;5068178;28;20032;-36
2022/12/31 06:02:21;;;;;;;2.55;0.80;;;10.70;99.90;;;;;;5065452;28;20037;-36
2022/12/31 06:04:47;;;;;;;5.18;0.90;;;10.70;99.90;;;;;;5062371;28;20047;-36
2022/12/31 06:07:13;;;;;;;2.85;0.90;;;10.70;99.90;;;;;;5051750;28;20052;-38
2022/12/31 06:09:39;;;;;;;3.13;0.95;;;10.70;99.90;;;;;;5065478;28;20075;-36
2022/12/31 06:12:05;;;;;;;3.38;1.27;;;10.70;99.90;;;;;;5059556;28;20080;-37
2022/12/31 06:14:31;;;;;;;3.22;0.93;;;10.60;99.90;;;;;;5063815;28;20040;-36
2022/12/31 06:16:57;;;;;;;3.08;1.10;;;10.60;99.90;;;;;;5066801;28;20508;-37
2022/12/31 06:19:23;;;;;;;4.40;1.10;;;10.60;99.90;;;;;;5063460;28;20043;-37
2022/12/31 06:21:48;;;;;;;2.10;1.05;;;10.60;99.90;;;;;;5066152;28;20539;-36
2022/12/31 06:24:14;;;;;;;3.45;1.40;;;10.60;99.90;;;;;;5054775;28;20043;-36
2022/12/31 06:26:40;;;;;;;2.38;1.00;;;10.60;99.90;;;;;;5057997;28;20036;-37
2022/12/31 06:29:06;;;;;;;2.17;1.13;;;10.60;99.90;;;;;;5068101;28;20044;-37
2022/12/31 06:31:31;;;;;;;2.42;0.98;;;10.60;99.90;;;;;;5065864;28;20079;-37
2022/12/31 06:33:57;;;;;;;3.53;1.33;;;10.60;99.90;;;;;;5068307;28;20085;-36
2022/12/31 06:36:23;;;;;;;3.72;1.40;;;10.60;99.90;;;;;;5043132;28;20079;-38
2022/12/31 06:38:49;;;;;;;2.85;1.10;;;10.60;99.90;;;;;;5063892;28;20099;-38
2022/12/31 06:41:15;;;;;;;2.92;1.10;;;10.60;99.90;;;;;;5064453;28;20040;-36
2022/12/31 06:43:42;;;;;;;2.63;1.27;;;10.60;99.90;;;;;;5064769;28;20072;-36
2022/12/31 06:46:10;;;;;;;3.70;1.35;;;10.60;99.90;;;;;;5060488;28;20071;-37
2022/12/31 06:48:36;;;;;;;2.75;1.00;;;10.50;99.90;;;;;;5067210;28;20536;-38
2022/12/31 06:51:07;;;;;;;5.18;1.30;;;10.50;99.90;;;;;;5061421;28;20143;-36
2022/12/31 06:53:33;;;;;;;2.85;1.00;;;10.50;99.90;;;;;;5066996;28;20048;-37
2022/12/31 06:56:14;;;;;;;4.10;1.48;;;10.50;99.90;;;;;;5067581;28;20040;-37
2022/12/31 06:58:40;;;;;;;1.98;1.00;;;10.50;99.90;;;;;;5047599;28;20555;-37
2022/12/31 07:01:29;;;;;;;4.10;1.30;;;10.50;99.90;;;;;;5062837;28;20033;-36
2022/12/31 07:04:10;;;;;;;2.63;1.10;;;10.50;99.90;;;;;;5047242;28;20118;-36
2022/12/31 07:06:45;;;;;;;4.60;1.20;;;10.50;99.90;;;;;;5065789;28;20040;-36
2022/12/31 07:09:39;;;;;;;3.13;0.85;;;10.50;99.90;;;;;;5063184;28;20045;-36
2022/12/31 07:12:10;;;;;;;2.72;1.33;;;10.50;99.90;;;;;;5059817;28;20127;-37
2022/12/31 07:15:37;;;;;;;5.00;0.75;;;10.50;99.90;;;;;;5064176;28;20040;-36
2022/12/31 07:18:21;;;;;;;2.38;0.90;;;10.60;99.90;;;;;;4985822;28;20050;-36
2022/12/31 07:20:47;;;;;;;3.45;0.95;;;10.60;99.90;;;;;;4978006;28;20043;-36
2022/12/31 07:23:13;;;;;;;2.63;1.10;;;10.60;99.90;;;;;;5030438;28;20441;-36
2022/12/31 07:25:47;;;;;;;1.83;0.80;;;10.70;99.90;;;;;;5067880;28;20078;-36
2022/12/31 07:28:25;;;;;;;2.35;0.93;;;10.70;99.90;;;;;;5068901;28;20040;-36
2022/12/31 07:31:06;;;;;;;2.33;1.15;;;10.70;99.90;;;;;;5064913;28;20040;-39
2022/12/31 07:33:53;;;;;;;2.83;1.20;;;10.70;99.90;;;;;;5062770;28;20325;-39
2022/12/31 07:37:01;;;;;;;2.38;1.23;;;10.80;99.90;;;;;;5064921;28;20048;-38
2022/12/31 07:39:38;;;;;;;3.33;1.50;;;10.80;99.90;;;;;;5063711;28;20032;-36
2022/12/31 07:42:22;;;;;;;2.85;1.20;;;10.80;99.90;;;;;;5062486;28;20045;-38
2022/12/31 07:45:03;;;;;;;2.63;1.17;;;10.80;99.90;;;;;;5063252;28;20123;-37
2022/12/31 07:47:30;;;;;;;3.92;1.25;;;10.90;99.90;;;;;;5064187;28;20036;-37
2022/12/31 07:49:56;;;;;;;3.60;1.40;;;10.90;99.90;;;;;;5060379;28;20110;-38
2022/12/31 07:52:22;;;;;;;3.28;1.27;;;10.90;99.90;;;;;;5062163;28;20539;-36
2022/12/31 07:54:49;;;;;;;3.55;1.33;;;11.00;99.90;;;;;;5064643;28;20054;-36
2022/12/31 07:57:17;;;;;;;2.95;1.40;;;11.00;99.90;;;;;;5068126;28;20046;-37
2022/12/31 07:59:46;;;;;;;3.53;1.13;;;11.00;99.90;;;;;;5069698;28;20035;-37
2022/12/31 08:02:23;;;;;;;2.95;1.30;;;11.00;99.90;;;;;;5066400;28;20036;-37
2022/12/31 08:05:20;;;;;;;2.85;1.50;;;11.10;99.90;;;;;;5064204;28;20721;-38
2022/12/31 08:08:29;;;;;;;3.08;1.25;;;11.20;99.90;;;;;;5060579;28;20037;-36
2022/12/31 08:11:31;;;;;;;3.00;1.40;;;11.20;99.90;;;;;;5046148;28;20670;-37
2022/12/31 08:14:02;;;;;;;2.90;1.47;;;11.30;99.90;;;;;;5062155;28;20043;-40
2022/12/31 08:16:28;;;;;;;2.22;1.23;;;11.40;99.90;;;;;;5066723;28;20041;-36
2022/12/31 08:18:54;;;;;;;4.57;1.80;;;11.50;99.90;;;;;;5083076;28;20050;-37
2022/12/31 08:21:44;;;;;;;3.65;1.70;;;11.60;99.90;;;;;;5065649;28;20493;-37
2022/12/31 08:24:18;;;;;;;3.33;1.02;;;11.70;99.90;;;;;;5062384;28;20649;-38
2022/12/31 08:26:55;;;;;;;3.88;1.90;;;11.70;99.90;;;;;;5065161;28;20051;-37
2022/12/31 08:29:43;;;;;;;4.05;2.03;;;11.80;99.90;;;;;;5064637;28;20098;-37
2022/12/31 08:32:35;;;;;;;3.90;2.40;;;11.80;99.90;;;;;;5062505;28;20524;-37
2022/12/31 08:35:01;;;;;;;3.83;1.52;;;11.90;99.90;;;;;;5038481;28;20509;-37
2022/12/31 08:37:55;;;;;;;4.18;2.15;;;11.90;99.90;;;;;;5065288;28;20090;-38
2022/12/31 08:40:50;;;;;;;2.97;1.48;;;12.00;99.90;;;;;;5035912;28;20448;-38
2022/12/31 08:43:47;;;;;;;4.22;2.08;;;12.00;99.90;;;;;;5065821;28;20118;-37
2022/12/31 08:46:24;;;;;;;4.65;1.73;;;12.10;99.90;;;;;;5067292;28;20041;-37
2022/12/31 08:48:50;;;;;;;3.03;1.67;;;12.10;99.90;;;;;;5058924;28;20033;-38
2022/12/31 08:51:21;;;;;;;3.97;1.70;;;12.20;99.90;;;;;;5067699;28;20059;-39
2022/12/31 08:53:47;;;;;;;1.60;0.90;;;12.20;99.90;;;;;;5061130;28;20048;-38
2022/12/31 08:56:31;;;;;;;1.98;1.02;;;12.30;99.90;;;;;;5068968;28;20481;-37
2022/12/31 08:59:06;;;;;;;1.45;0.80;;;12.30;99.90;;;;;;5047703;28;20147;-38
2022/12/31 09:01:49;;;;;;;3.13;1.40;;;12.30;99.90;;;;;;5066941;28;20773;-38
2022/12/31 09:04:39;;;;;;;2.70;1.30;;;12.40;99.90;;;;;;5012250;28;20037;-38
2022/12/31 09:07:06;;;;;;;3.08;1.05;;;12.40;99.90;;;;;;5061336;28;20441;-39
2022/12/31 09:10:01;;;;;;;3.08;1.70;;;12.40;99.90;;;;;;5059143;28;20177;-37
2022/12/31 09:12:41;;;;;;;2.15;1.02;;;12.50;99.90;;;;;;5059309;28;20569;-39
2022/12/31 09:15:24;;;;;;;1.23;0.52;;;12.50;99.90;;;;;;5035386;28;20076;-38
2022/12/31 09:17:51;;;;;;;0.82;0.40;;;12.60;99.90;;;;;;5062435;28;20045;-41
2022/12/31 09:20:29;;;;;;;1.02;0.47;;;12.60;99.90;;;;;;5057825;28;20463;-39
2022/12/31 09:22:56;;;;;;;1.63;0.40;;;12.60;99.90;;;;;;5062932;28;20055;-38
2022/12/31 09:25:24;;;;;;;1.73;0.60;;;12.60;99.90;;;;;;5056612;28;20036;-40
2022/12/31 09:28:00;;;;;;;1.77;0.52;;;12.60;99.90;;;;;;5056951;28;20403;-39
2022/12/31 09:30:31;;;;;;;2.67;0.30;;;12.60;99.90;;;;;;5055205;28;20047;-38
2022/12/31 09:33:12;;;;;;;0.88;0.55;;;12.70;99.90;;;;;;5064762;28;20051;-40
2022/12/31 09:35:55;;;;;;;1.45;0.40;;;12.70;99.90;;;;;;5061860;28;20581;-40
2022/12/31 09:38:36;;;;;;;1.67;0.35;;;12.70;99.90;;;;;;5064900;28;20048;-40
2022/12/31 09:41:24;;;;;;;2.22;0.50;;;12.80;99.90;;;;;;5063724;28;20070;-38
2022/12/31 09:44:08;;;;;;;1.55;0.57;;;12.90;99.90;;;;;;5061072;28;20440;-40
2022/12/31 09:46:43;;;;;;;1.02;0.40;;;12.90;99.90;;;;;;5062201;28;20040;-38
2022/12/31 09:49:17;;;;;;;2.05;0.50;;;12.90;99.90;;;;;;5062451;28;20047;-39
2022/12/31 09:52:14;;;;;;;0.50;0.22;;;13.00;99.90;;;;;;5061199;28;20507;-39
2022/12/31 09:54:52;;;;;;;2.15;0.75;;;13.00;99.90;;;;;;5042658;28;20060;-40
2022/12/31 09:58:01;;;;;;;1.50;0.35;;;13.10;99.90;;;;;;5061522;28;20036;-37
2022/12/31 10:00:38;;;;;;;0.93;0.20;;;13.20;99.90;;;;;;5007551;28;20051;-39
2022/12/31 10:03:38;;;;;;;1.52;0.50;;;13.20;99.90;;;;;;5056589;28;20063;-38
2022/12/31 10:06:16;;;;;;;0.60;0.25;;;13.30;99.90;;;;;;5058589;28;20544;-38
2022/12/31 10:09:12;;;;;;;1.73;0.40;;;13.30;99.90;;;;;;5055710;28;20060;-38
2022/12/31 10:12:03;;;;;;;0.50;0.25;;;13.30;99.90;;;;;;5057455;28;20049;-40
2022/12/31 10:14:50;;;;;;;2.53;0.40;;;13.30;99.90;;;;;;5060577;28;20490;-38
2022/12/31 10:17:46;;;;;;;1.45;0.30;;;13.40;99.90;;;;;;5064303;28;20572;-39
2022/12/31 10:20:29;;;;;;;2.60;0.50;;;13.40;99.90;;;;;;5060140;28;20641;-38
2022/12/31 10:23:03;;;;;;;;;;;13.40;99.90;;;;;;5061980;28;20071;-37
2022/12/31 10:25:47;;;;;;;2.58;0.43;;;13.40;99.90;;;;;;5052201;28;19916;-38
2022/12/31 10:28:47;;;;;;;3.97;0.50;;;13.40;99.90;;;;;;5056269;28;20048;-37
2022/12/31 10:31:37;;;;;;;2.83;0.70;;;13.40;99.90;;;;;;5057355;28;20064;-37
2022/12/31 10:34:25;;;;;;;1.33;0.55;;;13.50;99.90;;;;;;5061183;28;20044;-37
2022/12/31 10:36:53;;;;;;;3.05;0.70;;;13.50;99.90;;;;;;5066068;28;20083;-40
2022/12/31 10:39:45;;;;;;;3.20;1.08;;;13.50;99.90;;;;;;5058895;28;20025;-40
2022/12/31 10:42:20;;;;;;;4.15;1.33;;;13.50;99.90;;;;;;5062471;28;20043;-39
2022/12/31 10:44:58;;;;;;;6.32;1.65;;;13.40;99.90;;;;;;5063381;28;20516;-37
2022/12/31 10:47:48;;;;;;;5.53;1.15;;;13.40;99.90;;;;;;5053932;28;20158;-37
2022/12/31 10:50:32;;;;;;;6.00;2.00;;;13.40;99.90;;;;;;5062304;28;20060;-37
2022/12/31 10:53:16;;;;;;;2.90;1.20;;;13.40;99.90;;;;;;5047967;28;20041;-38
2022/12/31 10:56:20;;;;;;;4.97;1.15;;;13.40;99.90;;;;;;5057187;28;20048;-37
2022/12/31 10:59:23;;;;;;;2.03;0.80;;;13.30;99.90;;;;;;5063782;28;20544;-37
2022/12/31 11:02:11;;;;;;;2.83;1.05;;;13.20;99.90;;;;;;5041782;28;20044;-38
2022/12/31 11:05:05;;;;;;;4.10;1.30;;;13.20;99.90;;;;;;5060729;28;20040;-38
2022/12/31 11:07:50;;;;;;;3.92;1.15;;;13.20;99.90;;;;;;4966247;28;20516;-38
2022/12/31 11:10:38;;;;;;;6.80;1.20;;;13.20;99.90;;;;;;5060197;28;20051;-36
2022/12/31 11:13:22;;;;;;;3.90;1.23;;;13.30;99.90;;;;;;5041222;28;20047;-38
2022/12/31 11:15:53;;;;;;;4.38;0.95;;;13.40;99.90;;;;;;5061513;28;20072;-38
2022/12/31 11:18:50;;;;;;;3.75;0.75;;;13.50;99.90;;;;;;5042182;28;20041;-38
2022/12/31 11:21:57;;;;;;;2.15;1.00;;;13.50;99.90;;;;;;5060465;28;20040;-37
2022/12/31 11:24:24;;;;;;;2.50;1.23;;;13.60;99.90;;;;;;5023262;28;20040;-37
2022/12/31 11:26:57;;;;;;;4.55;1.52;;;13.70;99.90;;;;;;5057997;28;22239;-37
2022/12/31 11:29:55;;;;;;;4.47;0.80;;;13.70;99.90;;;;;;5061155;28;20038;-38
2022/12/31 11:32:49;;;;;;;3.28;0.95;;;13.80;99.90;;;;;;5057455;28;20631;-38
2022/12/31 11:35:50;;;;;;;1.80;0.60;;;13.90;99.90;;;;;;5060708;28;20535;-38
2022/12/31 11:38:27;;;;;;;1.20;0.50;;;14.00;99.90;;;;;;5062519;28;20029;-37
2022/12/31 11:41:04;;;;;;;2.38;0.70;;;14.10;99.90;;;;;;5063393;28;20037;-37
2022/12/31 11:43:37;;;;;;;3.33;0.60;;;14.10;99.90;;;;;;5040559;28;20052;-37
2022/12/31 11:46:18;;;;;;;;;;;14.10;99.90;;;;;;5046864;28;20136;-37
2022/12/31 11:49:18;;;;;;;2.50;0.70;;;14.20;99.90;;;;;;5060231;28;19916;-37
2022/12/31 11:52:05;;;;;;;2.72;0.88;;;14.20;99.90;;;;;;5057794;28;20048;-38
2022/12/31 11:55:16;;;;;;;2.28;0.93;;;14.20;99.90;;;;;;5061396;28;20076;-38
2022/12/31 11:57:48;;;;;;;2.20;1.33;;;14.30;99.90;;;;;;5056455;28;20033;-40
2022/12/31 12:00:17;;;;;;;3.92;1.10;;;14.40;99.90;;;;;;5049828;28;20123;-38
2022/12/31 12:02:46;;;;;;;3.22;0.50;;;14.40;99.90;;;;;;5055677;28;20059;-38
2022/12/31 12:05:21;;;;;;;2.85;0.38;;;14.40;99.90;;;;;;5064205;28;20457;-39
2022/12/31 12:07:48;;;;;;;1.63;0.40;;;14.40;99.90;;;;;;5054328;28;20603;-39
2022/12/31 12:10:27;;;;;;;2.33;0.60;;;14.40;99.90;;;;;;5060866;28;20040;-39
2022/12/31 12:12:54;;;;;;;2.40;0.50;;;14.30;99.90;;;;;;5056842;28;20615;-40
2022/12/31 12:15:27;;;;;;;1.48;0.50;;;14.30;99.90;;;;;;5052019;28;20052;-40
2022/12/31 12:17:56;;;;;;;1.38;0.47;;;14.20;99.90;;;;;;5062146;28;20120;-39
2022/12/31 12:20:31;;;;;;;2.83;0.77;;;14.10;99.90;;;;;;5055839;28;20131;-40
2022/12/31 12:22:59;;;;;;;4.13;1.73;;;14.00;99.90;;;;;;5057010;28;20537;-41
2022/12/31 12:25:35;;;;;;;4.95;2.20;;;14.00;99.90;;;;;;5056495;28;20041;-38
2022/12/31 12:28:17;;;;;;;5.35;1.48;;;14.00;99.90;;;;;;5064577;28;20044;-39
2022/12/31 12:30:54;;;;;;;4.32;1.50;;;14.00;99.90;;;;;;5045509;28;20047;-39
2022/12/31 12:33:20;;;;;;;3.72;1.42;;;14.10;99.90;;;;;;5067392;28;20051;-39
2022/12/31 12:35:47;;;;;;;3.00;0.70;;;14.10;99.90;;;;;;5060631;28;20516;-39
2022/12/31 12:38:16;;;;;;;2.67;0.57;;;14.00;99.90;;;;;;5062648;28;20036;-39
2022/12/31 12:40:52;;;;;;;1.73;0.82;;;13.90;99.90;;;;;;5064270;28;20024;-39
2022/12/31 12:43:39;;;;;;;2.35;1.17;;;13.90;99.90;;;;;;5064847;28;20085;-42
2022/12/31 12:46:17;;;;;;;2.80;1.10;;;13.80;99.90;;;;;;5039113;28;20060;-40
2022/12/31 12:48:46;;;;;;;4.03;1.10;;;13.70;99.90;;;;;;5058058;28;20042;-41
2022/12/31 12:51:41;;;;;;;2.20;0.90;;;13.70;99.90;;;;;;5061892;28;20649;-40
2022/12/31 12:54:22;;;;;;;0.93;0.30;;;13.60;99.90;;;;;;5039164;28;20118;-38
2022/12/31 12:57:17;;;;;;;2.15;0.30;;;13.60;99.90;;;;;;5063949;28;20040;-39
2022/12/31 13:00:08;;;;;;;1.60;0.50;;;13.50;99.90;;;;;;5043784;28;20048;-38
2022/12/31 13:02:59;;;;;;;3.95;0.40;;;13.40;99.90;;;;;;5062867;28;20029;-39
2022/12/31 13:05:57;;;;;;;1.40;0.30;;;13.40;99.90;;;;;;5064284;28;20502;-38
2022/12/31 13:08:52;;;;;;;3.80;0.50;;;13.30;99.90;;;;;;5059608;28;20056;-39
2022/12/31 13:11:35;;;;;;;4.13;0.40;;;13.30;99.90;;;;;;5066707;28;20128;-39
2022/12/31 13:14:30;;;;;;;3.13;0.47;;;13.30;99.90;;;;;;5061775;28;20074;-39
2022/12/31 13:17:34;;;;;;;0.80;0.40;;;13.20;99.90;;;;;;5059838;28;20025;-38
2022/12/31 13:20:24;;;;;;;2.55;0.40;;;13.20;99.90;;;;;;5069049;28;20443;-39
2022/12/31 13:23:13;;;;;;;4.07;1.10;;;13.20;99.90;;;;;;5058329;28;20044;-39
2022/12/31 13:25:54;;;;;;;3.25;1.17;;;13.20;99.90;;;;;;5043304;28;20048;-38
2022/12/31 13:28:22;;;;;;;2.33;1.25;;;13.10;99.90;;;;;;5067336;28;20102;-40
2022/12/31 13:30:54;;;;;;;2.40;1.00;;;13.10;99.90;;;;;;5044191;28;20477;-38
2022/12/31 13:33:25;;;;;;;2.40;1.47;;;13.10;99.90;;;;;;5064171;28;20490;-38